Cleveland, Ohio
Current Conditions -  °F | °C
As of 11:53 AM on Thursday 18 Dec 2014 (Local Time) from KBKL Reporting Station
Overcast Overcast  
Wind Chill: -6°   Ceiling: 1900
Heat Index: -1°   Visibility: 10mi
Dew Point: -4°   Wind: 13mph
Humidity: 76%   Direction: 220°SW
Pressure: 30.2"   Gusts: NA
Location:  41.5°N, 81.69°W
Report Text: KBKL 181653Z 22011KT 10SM OVC019 M01/M04 A3020 RMK AO2 SLP233 T10061044
Loading
Personal Weather Stations






























Interactive Weather Map New forecast layout! Learn more

10-Day Weather Forecast

Advertisements
Track Severe Weather on mobile